sensor_id;sensor_type;location;lat;lon;timestamp;pressure;altitude;pressure_sealevel;temperature;humidity
37068;BME280;22982;42.848;25.468;2022-09-03T00:01:42;96071.38;;;18.94;100.00
37068;BME280;22982;42.848;25.468;2022-09-03T00:06:54;96103.31;;;18.84;100.00
37068;BME280;22982;42.848;25.468;2022-09-03T00:12:07;96108.88;;;18.16;100.00
37068;BME280;22982;42.848;25.468;2022-09-03T00:17:21;96110.41;;;18.09;100.00
37068;BME280;22982;42.848;25.468;2022-09-03T00:22:33;96113.06;;;17.79;100.00
37068;BME280;22982;42.848;25.468;2022-09-03T00:27:39;96125.34;;;17.80;100.00
37068;BME280;22982;42.848;25.468;2022-09-03T00:33:03;96122.00;;;17.69;100.00
37068;BME280;22982;42.848;25.468;2022-09-03T00:38:10;96106.09;;;17.20;100.00
37068;BME280;22982;42.848;25.468;2022-09-03T00:54:29;96134.81;;;17.25;100.00
37068;BME280;22982;42.848;25.468;2022-09-03T01:10:21;96127.25;;;17.00;100.00
37068;BME280;22982;42.848;25.468;2022-09-03T01:15:44;96120.53;;;16.87;100.00
37068;BME280;22982;42.848;25.468;2022-09-03T01:48:13;96140.50;;;17.00;100.00
37068;BME280;22982;42.848;25.468;2022-09-03T01:58:43;96158.66;;;17.34;100.00
37068;BME280;22982;42.848;25.468;2022-09-03T02:03:48;96122.03;;;16.89;100.00
37068;BME280;22982;42.848;25.468;2022-09-03T02:08:52;96157.97;;;17.32;100.00
37068;BME280;22982;42.848;25.468;2022-09-03T02:13:55;96150.47;;;17.28;100.00
37068;BME280;22982;42.848;25.468;2022-09-03T02:19:03;96145.59;;;17.42;100.00
37068;BME280;22982;42.848;25.468;2022-09-03T02:24:07;96158.00;;;17.42;100.00
37068;BME280;22982;42.848;25.468;2022-09-03T02:29:13;96157.31;;;17.50;100.00
37068;BME280;22982;42.848;25.468;2022-09-03T02:34:16;96162.75;;;17.38;100.00
37068;BME280;22982;42.848;25.468;2022-09-03T02:39:18;96143.19;;;17.20;100.00
37068;BME280;22982;42.848;25.468;2022-09-03T02:44:25;96154.75;;;17.09;100.00
37068;BME280;22982;42.848;25.468;2022-09-03T02:49:32;96172.75;;;17.25;100.00
37068;BME280;22982;42.848;25.468;2022-09-03T02:54:35;96170.00;;;17.36;100.00
37068;BME280;22982;42.848;25.468;2022-09-03T02:59:41;96157.66;;;17.16;100.00
37068;BME280;22982;42.848;25.468;2022-09-03T03:04:45;96165.94;;;17.32;100.00
37068;BME280;22982;42.848;25.468;2022-09-03T03:09:47;96168.31;;;17.35;100.00
37068;BME280;22982;42.848;25.468;2022-09-03T03:14:50;96166.75;;;17.13;100.00
37068;BME280;22982;42.848;25.468;2022-09-03T03:19:53;96157.63;;;16.96;100.00
37068;BME280;22982;42.848;25.468;2022-09-03T03:24:55;96147.63;;;17.10;100.00
37068;BME280;22982;42.848;25.468;2022-09-03T03:29:58;96153.88;;;17.09;100.00
37068;BME280;22982;42.848;25.468;2022-09-03T03:35:00;96162.97;;;17.16;100.00
37068;BME280;22982;42.848;25.468;2022-09-03T03:40:03;96152.31;;;16.96;100.00
37068;BME280;22982;42.848;25.468;2022-09-03T03:45:06;96167.13;;;17.09;100.00
37068;BME280;22982;42.848;25.468;2022-09-03T03:50:09;96156.09;;;16.73;100.00
37068;BME280;22982;42.848;25.468;2022-09-03T03:55:11;96157.00;;;16.52;100.00
37068;BME280;22982;42.848;25.468;2022-09-03T04:00:16;96158.59;;;16.64;100.00
37068;BME280;22982;42.848;25.468;2022-09-03T04:05:18;96165.16;;;16.91;100.00
37068;BME280;22982;42.848;25.468;2022-09-03T04:10:24;96172.00;;;16.73;100.00
37068;BME280;22982;42.848;25.468;2022-09-03T04:15:27;96158.72;;;16.63;100.00
37068;BME280;22982;42.848;25.468;2022-09-03T04:20:29;96181.22;;;16.78;100.00
37068;BME280;22982;42.848;25.468;2022-09-03T04:25:31;96191.16;;;17.17;100.00
37068;BME280;22982;42.848;25.468;2022-09-03T04:30:35;96196.19;;;17.20;100.00
37068;BME280;22982;42.848;25.468;2022-09-03T04:35:38;96205.78;;;17.21;100.00
37068;BME280;22982;42.848;25.468;2022-09-03T04:40:41;96185.03;;;17.16;100.00
37068;BME280;22982;42.848;25.468;2022-09-03T04:45:44;96214.38;;;17.44;100.00
37068;BME280;22982;42.848;25.468;2022-09-03T04:50:47;96204.84;;;17.22;100.00
37068;BME280;22982;42.848;25.468;2022-09-03T04:55:49;96206.06;;;17.18;100.00
37068;BME280;22982;42.848;25.468;2022-09-03T05:00:51;96223.25;;;17.33;100.00
37068;BME280;22982;42.848;25.468;2022-09-03T05:05:54;96234.38;;;17.27;100.00
37068;BME280;22982;42.848;25.468;2022-09-03T05:11:00;96240.91;;;17.13;100.00
37068;BME280;22982;42.848;25.468;2022-09-03T05:16:08;96237.00;;;17.08;100.00
37068;BME280;22982;42.848;25.468;2022-09-03T05:21:16;96255.19;;;17.22;100.00
37068;BME280;22982;42.848;25.468;2022-09-03T05:26:23;96244.72;;;17.30;100.00
37068;BME280;22982;42.848;25.468;2022-09-03T05:31:28;96246.94;;;17.25;100.00
37068;BME280;22982;42.848;25.468;2022-09-03T05:36:35;96222.09;;;16.86;100.00
37068;BME280;22982;42.848;25.468;2022-09-03T05:41:38;96254.41;;;17.00;100.00
37068;BME280;22982;42.848;25.468;2022-09-03T05:46:40;96252.97;;;16.96;100.00
37068;BME280;22982;42.848;25.468;2022-09-03T05:51:43;96264.91;;;17.21;100.00
37068;BME280;22982;42.848;25.468;2022-09-03T05:56:45;96259.09;;;17.28;100.00
37068;BME280;22982;42.848;25.468;2022-09-03T06:01:47;96256.41;;;17.18;100.00
37068;BME280;22982;42.848;25.468;2022-09-03T06:07:01;96241.59;;;17.06;100.00
37068;BME280;22982;42.848;25.468;2022-09-03T06:12:03;96282.50;;;17.22;100.00
37068;BME280;22982;42.848;25.468;2022-09-03T06:17:05;96280.31;;;17.37;100.00
37068;BME280;22982;42.848;25.468;2022-09-03T06:22:12;96292.19;;;17.33;100.00
37068;BME280;22982;42.848;25.468;2022-09-03T06:27:14;96282.09;;;17.27;100.00
37068;BME280;22982;42.848;25.468;2022-09-03T06:32:21;96288.94;;;17.20;100.00
37068;BME280;22982;42.848;25.468;2022-09-03T06:37:24;96288.75;;;17.12;100.00
37068;BME280;22982;42.848;25.468;2022-09-03T07:02:29;96322.06;;;17.45;100.00
37068;BME280;22982;42.848;25.468;2022-09-03T07:07:32;96331.91;;;17.64;100.00
37068;BME280;22982;42.848;25.468;2022-09-03T07:12:34;96334.44;;;17.75;100.00
37068;BME280;22982;42.848;25.468;2022-09-03T07:17:38;96336.34;;;17.94;100.00
37068;BME280;22982;42.848;25.468;2022-09-03T07:22:40;96354.41;;;18.10;100.00
37068;BME280;22982;42.848;25.468;2022-09-03T07:27:42;96356.00;;;17.92;100.00
37068;BME280;22982;42.848;25.468;2022-09-03T07:32:45;96351.00;;;17.89;100.00
37068;BME280;22982;42.848;25.468;2022-09-03T07:37:47;96354.78;;;17.96;100.00
37068;BME280;22982;42.848;25.468;2022-09-03T07:42:55;96347.13;;;18.12;100.00
37068;BME280;22982;42.848;25.468;2022-09-03T07:48:05;96345.25;;;17.93;100.00
37068;BME280;22982;42.848;25.468;2022-09-03T07:53:07;96356.31;;;17.89;100.00
37068;BME280;22982;42.848;25.468;2022-09-03T07:58:09;96366.53;;;18.03;100.00
37068;BME280;22982;42.848;25.468;2022-09-03T08:03:13;96347.69;;;18.35;100.00
37068;BME280;22982;42.848;25.468;2022-09-03T08:08:15;96352.81;;;17.98;100.00
37068;BME280;22982;42.848;25.468;2022-09-03T08:13:20;96345.53;;;17.90;100.00
37068;BME280;22982;42.848;25.468;2022-09-03T08:18:22;96348.84;;;17.83;100.00
37068;BME280;22982;42.848;25.468;2022-09-03T08:23:25;96333.59;;;17.75;100.00
37068;BME280;22982;42.848;25.468;2022-09-03T08:28:27;96355.75;;;18.05;100.00
37068;BME280;22982;42.848;25.468;2022-09-03T08:33:31;96333.13;;;17.91;100.00
37068;BME280;22982;42.848;25.468;2022-09-03T08:38:40;96324.25;;;17.71;100.00
37068;BME280;22982;42.848;25.468;2022-09-03T08:49:09;96325.06;;;18.61;100.00
37068;BME280;22982;42.848;25.468;2022-09-03T08:54:13;96332.31;;;18.88;100.00
37068;BME280;22982;42.848;25.468;2022-09-03T08:59:15;96341.38;;;18.95;99.72
37068;BME280;22982;42.848;25.468;2022-09-03T09:25:33;96351.25;;;19.97;93.65
37068;BME280;22982;42.848;25.468;2022-09-03T09:30:45;96347.63;;;20.34;92.63
37068;BME280;22982;42.848;25.468;2022-09-03T09:35:49;96357.50;;;20.70;90.56
37068;BME280;22982;42.848;25.468;2022-09-03T09:40:51;96362.94;;;19.86;91.91
37068;BME280;22982;42.848;25.468;2022-09-03T09:45:53;96348.94;;;20.30;89.76
37068;BME280;22982;42.848;25.468;2022-09-03T09:51:29;96331.13;;;20.31;88.27
37068;BME280;22982;42.848;25.468;2022-09-03T09:56:32;96334.53;;;21.21;84.93
37068;BME280;22982;42.848;25.468;2022-09-03T10:01:37;96371.59;;;21.50;82.72
37068;BME280;22982;42.848;25.468;2022-09-03T10:06:42;96363.22;;;21.45;82.67
37068;BME280;22982;42.848;25.468;2022-09-03T10:12:20;96376.97;;;21.58;81.90
37068;BME280;22982;42.848;25.468;2022-09-03T10:28:17;96344.75;;;22.94;73.12
37068;BME280;22982;42.848;25.468;2022-09-03T10:33:34;96370.63;;;23.43;72.81
37068;BME280;22982;42.848;25.468;2022-09-03T10:38:41;96386.69;;;23.60;70.63
37068;BME280;22982;42.848;25.468;2022-09-03T10:43:55;96389.25;;;22.87;70.95
37068;BME280;22982;42.848;25.468;2022-09-03T10:49:08;96400.22;;;22.09;76.87
37068;BME280;22982;42.848;25.468;2022-09-03T11:05:04;96376.16;;;22.60;75.51
37068;BME280;22982;42.848;25.468;2022-09-03T11:15:32;96391.31;;;22.26;77.23
37068;BME280;22982;42.848;25.468;2022-09-03T11:20:36;96378.00;;;22.00;78.94
37068;BME280;22982;42.848;25.468;2022-09-03T11:25:50;96379.84;;;22.08;79.05
37068;BME280;22982;42.848;25.468;2022-09-03T11:36:06;96369.47;;;21.62;79.79
37068;BME280;22982;42.848;25.468;2022-09-03T11:41:34;96405.81;;;21.11;84.62
37068;BME280;22982;42.848;25.468;2022-09-03T11:46:39;96407.19;;;20.97;85.61
37068;BME280;22982;42.848;25.468;2022-09-03T11:51:42;96414.81;;;20.92;84.98
37068;BME280;22982;42.848;25.468;2022-09-03T11:56:46;96398.78;;;20.38;86.75
37068;BME280;22982;42.848;25.468;2022-09-03T12:12:13;96414.03;;;19.90;90.91
37068;BME280;22982;42.848;25.468;2022-09-03T12:22:50;96400.47;;;19.83;91.98
37068;BME280;22982;42.848;25.468;2022-09-03T12:27:52;96393.50;;;19.73;92.62
37068;BME280;22982;42.848;25.468;2022-09-03T12:33:05;96415.53;;;20.02;90.26
37068;BME280;22982;42.848;25.468;2022-09-03T12:43:59;96403.19;;;19.64;93.81
37068;BME280;22982;42.848;25.468;2022-09-03T12:49:04;96422.63;;;19.84;94.47
37068;BME280;22982;42.848;25.468;2022-09-03T12:54:28;96421.06;;;19.91;93.97
37068;BME280;22982;42.848;25.468;2022-09-03T12:59:32;96402.47;;;19.72;92.12
37068;BME280;22982;42.848;25.468;2022-09-03T13:04:38;96424.19;;;19.77;93.64
37068;BME280;22982;42.848;25.468;2022-09-03T13:09:41;96420.81;;;19.75;93.07
37068;BME280;22982;42.848;25.468;2022-09-03T13:14:48;96405.41;;;19.78;92.78
37068;BME280;22982;42.848;25.468;2022-09-03T13:25:34;96414.66;;;19.84;91.45
37068;BME280;22982;42.848;25.468;2022-09-03T13:30:49;96418.22;;;19.93;91.82
37068;BME280;22982;42.848;25.468;2022-09-03T13:41:31;96411.25;;;19.92;91.08
37068;BME280;22982;42.848;25.468;2022-09-03T13:46:51;96407.16;;;19.50;96.06
37068;BME280;22982;42.848;25.468;2022-09-03T13:52:01;96424.28;;;19.38;97.50
37068;BME280;22982;42.848;25.468;2022-09-03T13:57:17;96425.13;;;19.28;97.79
37068;BME280;22982;42.848;25.468;2022-09-03T14:02:49;96418.56;;;19.23;97.93
37068;BME280;22982;42.848;25.468;2022-09-03T14:08:03;96406.56;;;19.09;98.82
37068;BME280;22982;42.848;25.468;2022-09-03T14:13:23;96407.25;;;19.11;99.43
37068;BME280;22982;42.848;25.468;2022-09-03T14:23:50;96430.19;;;19.12;99.53
37068;BME280;22982;42.848;25.468;2022-09-03T14:29:04;96430.75;;;19.06;100.00
37068;BME280;22982;42.848;25.468;2022-09-03T14:34:34;96406.72;;;18.98;99.79
37068;BME280;22982;42.848;25.468;2022-09-03T14:39:53;96391.91;;;18.85;100.00
37068;BME280;22982;42.848;25.468;2022-09-03T14:56:08;96448.66;;;18.84;100.00
37068;BME280;22982;42.848;25.468;2022-09-03T15:01:28;96463.13;;;18.61;100.00
37068;BME280;22982;42.848;25.468;2022-09-03T15:23:19;96469.63;;;18.87;100.00
37068;BME280;22982;42.848;25.468;2022-09-03T15:33:59;96442.75;;;18.71;100.00
37068;BME280;22982;42.848;25.468;2022-09-03T15:39:14;96470.72;;;18.75;100.00
37068;BME280;22982;42.848;25.468;2022-09-03T15:44:19;96469.03;;;18.74;100.00
37068;BME280;22982;42.848;25.468;2022-09-03T15:49:43;96484.56;;;18.69;100.00
37068;BME280;22982;42.848;25.468;2022-09-03T16:00:16;96460.56;;;18.30;100.00
37068;BME280;22982;42.848;25.468;2022-09-03T16:05:34;96478.72;;;18.94;100.00
37068;BME280;22982;42.848;25.468;2022-09-03T16:11:09;96480.06;;;19.47;100.00
37068;BME280;22982;42.848;25.468;2022-09-03T16:16:30;96485.31;;;19.10;100.00
37068;BME280;22982;42.848;25.468;2022-09-03T16:27:08;96476.91;;;19.15;100.00
37068;BME280;22982;42.848;25.468;2022-09-03T16:48:49;96488.81;;;19.01;100.00
37068;BME280;22982;42.848;25.468;2022-09-03T17:20:42;96511.41;;;18.25;100.00
37068;BME280;22982;42.848;25.468;2022-09-03T17:26:00;96507.72;;;18.07;100.00
37068;BME280;22982;42.848;25.468;2022-09-03T17:36:14;96543.31;;;18.04;100.00
37068;BME280;22982;42.848;25.468;2022-09-03T17:52:02;96553.19;;;17.81;100.00
37068;BME280;22982;42.848;25.468;2022-09-03T18:02:41;96569.66;;;17.96;100.00
37068;BME280;22982;42.848;25.468;2022-09-03T18:13:20;96563.25;;;17.98;100.00
37068;BME280;22982;42.848;25.468;2022-09-03T18:18:31;96574.41;;;18.23;100.00
37068;BME280;22982;42.848;25.468;2022-09-03T18:23:49;96565.94;;;18.08;100.00
37068;BME280;22982;42.848;25.468;2022-09-03T18:29:35;96564.22;;;17.97;100.00
37068;BME280;22982;42.848;25.468;2022-09-03T18:34:59;96557.28;;;17.64;100.00
37068;BME280;22982;42.848;25.468;2022-09-03T18:40:26;96571.56;;;17.52;100.00
37068;BME280;22982;42.848;25.468;2022-09-03T18:46:06;96556.59;;;17.62;100.00
37068;BME280;22982;42.848;25.468;2022-09-03T18:52:08;96580.31;;;17.85;100.00
37068;BME280;22982;42.848;25.468;2022-09-03T18:57:52;96579.84;;;17.79;100.00
37068;BME280;22982;42.848;25.468;2022-09-03T19:03:37;96576.00;;;17.84;100.00
37068;BME280;22982;42.848;25.468;2022-09-03T19:15:10;96582.50;;;18.52;100.00
37068;BME280;22982;42.848;25.468;2022-09-03T19:20:30;96579.00;;;18.92;100.00
37068;BME280;22982;42.848;25.468;2022-09-03T19:25:55;96594.16;;;18.71;100.00
37068;BME280;22982;42.848;25.468;2022-09-03T19:31:40;96600.44;;;18.70;100.00
37068;BME280;22982;42.848;25.468;2022-09-03T19:37:22;96616.72;;;18.25;100.00
37068;BME280;22982;42.848;25.468;2022-09-03T19:43:19;96612.97;;;18.89;100.00
37068;BME280;22982;42.848;25.468;2022-09-03T19:54:35;96601.00;;;18.73;100.00
37068;BME280;22982;42.848;25.468;2022-09-03T19:59:57;96604.44;;;18.85;100.00
37068;BME280;22982;42.848;25.468;2022-09-03T20:05:31;96600.75;;;18.77;100.00
37068;BME280;22982;42.848;25.468;2022-09-03T20:10:55;96604.25;;;18.46;100.00
37068;BME280;22982;42.848;25.468;2022-09-03T20:16:14;96592.13;;;18.23;100.00
37068;BME280;22982;42.848;25.468;2022-09-03T20:21:35;96621.13;;;18.97;100.00
37068;BME280;22982;42.848;25.468;2022-09-03T20:32:11;96620.63;;;18.82;100.00
37068;BME280;22982;42.848;25.468;2022-09-03T20:37:25;96636.91;;;18.37;100.00
37068;BME280;22982;42.848;25.468;2022-09-03T20:42:49;96639.56;;;17.74;100.00
37068;BME280;22982;42.848;25.468;2022-09-03T20:58:53;96648.38;;;17.74;100.00
37068;BME280;22982;42.848;25.468;2022-09-03T21:09:26;96645.88;;;17.94;100.00
37068;BME280;22982;42.848;25.468;2022-09-03T21:14:38;96646.47;;;17.97;100.00
37068;BME280;22982;42.848;25.468;2022-09-03T21:25:34;96645.44;;;17.89;100.00
37068;BME280;22982;42.848;25.468;2022-09-03T21:30:40;96629.03;;;17.84;100.00
37068;BME280;22982;42.848;25.468;2022-09-03T21:35:57;96638.66;;;17.85;100.00
37068;BME280;22982;42.848;25.468;2022-09-03T21:41:20;96645.63;;;17.97;100.00
37068;BME280;22982;42.848;25.468;2022-09-03T21:46:30;96640.38;;;17.86;100.00
37068;BME280;22982;42.848;25.468;2022-09-03T22:02:27;96632.53;;;17.84;100.00
37068;BME280;22982;42.848;25.468;2022-09-03T22:18:28;96632.19;;;17.77;100.00
37068;BME280;22982;42.848;25.468;2022-09-03T22:29:15;96599.66;;;17.75;100.00
37068;BME280;22982;42.848;25.468;2022-09-03T22:34:35;96605.25;;;17.40;100.00
37068;BME280;22982;42.848;25.468;2022-09-03T22:39:45;96606.75;;;17.21;100.00
37068;BME280;22982;42.848;25.468;2022-09-03T22:45:09;96608.63;;;17.31;100.00
37068;BME280;22982;42.848;25.468;2022-09-03T22:50:27;96606.44;;;17.47;100.00
37068;BME280;22982;42.848;25.468;2022-09-03T22:55:35;96603.78;;;17.47;100.00
37068;BME280;22982;42.848;25.468;2022-09-03T23:00:43;96587.50;;;17.19;100.00
37068;BME280;22982;42.848;25.468;2022-09-03T23:06:07;96580.19;;;17.12;100.00
37068;BME280;22982;42.848;25.468;2022-09-03T23:11:21;96592.16;;;17.27;100.00
37068;BME280;22982;42.848;25.468;2022-09-03T23:21:40;96606.66;;;17.12;100.00
37068;BME280;22982;42.848;25.468;2022-09-03T23:26:48;96594.22;;;16.91;100.00
37068;BME280;22982;42.848;25.468;2022-09-03T23:31:55;96610.19;;;17.01;100.00
37068;BME280;22982;42.848;25.468;2022-09-03T23:54:15;96620.53;;;16.93;100.00
37068;BME280;22982;42.848;25.468;2022-09-03T23:59:55;96621.50;;;17.03;100.00
